createdAt,value
2018-06-27T00:01:06.096Z,80.23
2018-06-27T00:03:35.851Z,80.70
2018-06-27T00:06:05.137Z,80.46
2018-06-27T00:08:34.587Z,79.96
2018-06-27T00:11:04.391Z,80.44
2018-06-27T00:13:33.591Z,80.85
2018-06-27T00:16:03.087Z,80.78
2018-06-27T00:18:32.326Z,80.84
2018-06-27T00:21:01.575Z,80.75
2018-06-27T00:23:30.779Z,79.82
2018-06-27T00:26:00.040Z,80.05
2018-06-27T00:28:29.572Z,79.86
2018-06-27T00:30:58.906Z,80.41
2018-06-27T00:33:28.863Z,80.05
2018-06-27T00:35:58.099Z,80.45
2018-06-27T00:38:27.319Z,80.14
2018-06-27T00:40:56.679Z,80.06
2018-06-27T00:43:25.895Z,80.51
2018-06-27T00:45:55.139Z,80.36
2018-06-27T00:48:24.384Z,80.40
2018-06-27T00:50:53.659Z,80.10
2018-06-27T00:53:27.031Z,80.20
2018-06-27T00:55:56.259Z,80.24
2018-06-27T00:58:25.690Z,80.95
2018-06-27T01:00:55.027Z,81.48
2018-06-27T01:03:24.908Z,81.11
2018-06-27T01:05:54.236Z,81.78
2018-06-27T01:08:23.707Z,82.04
2018-06-27T01:10:53.243Z,81.88
2018-06-27T01:13:22.686Z,81.82
2018-06-27T01:15:52.203Z,80.92
2018-06-27T01:18:21.975Z,81.09
2018-06-27T01:20:51.200Z,80.24
2018-06-27T01:23:20.426Z,80.28
2018-06-27T01:25:49.642Z,81.06
2018-06-27T01:28:19.271Z,80.61
2018-06-27T01:30:48.496Z,81.00
2018-06-27T01:33:17.763Z,80.86
2018-06-27T01:35:46.987Z,80.66
2018-06-27T01:38:16.307Z,80.72
2018-06-27T01:40:45.648Z,80.39
2018-06-27T01:43:14.863Z,80.33
2018-06-27T01:45:44.089Z,81.12
2018-06-27T01:48:13.848Z,81.13
2018-06-27T01:50:43.047Z,81.55
2018-06-27T01:53:13.959Z,81.89
2018-06-27T01:55:43.331Z,81.62
2018-06-27T01:58:12.890Z,84.06
2018-06-27T02:00:42.455Z,85.90
2018-06-27T02:03:11.806Z,85.93
2018-06-27T02:05:41.239Z,84.93
2018-06-27T02:08:10.790Z,84.30
2018-06-27T02:10:40.324Z,82.54
2018-06-27T02:13:09.835Z,81.96
2018-06-27T02:15:39.204Z,81.56
2018-06-27T02:18:08.415Z,81.51
2018-06-27T02:20:37.763Z,80.63
2018-06-27T02:23:09.863Z,80.99
2018-06-27T02:25:39.778Z,80.77
2018-06-27T02:28:10.062Z,80.34
2018-06-27T02:30:39.440Z,80.64
2018-06-27T02:33:09.122Z,80.80
2018-06-27T02:35:38.367Z,80.57
2018-06-27T02:38:07.604Z,80.90
2018-06-27T02:40:36.855Z,81.18
2018-06-27T02:43:06.084Z,81.15
2018-06-27T02:45:35.787Z,81.05
2018-06-27T02:48:04.980Z,81.04
2018-06-27T02:50:34.368Z,81.27
2018-06-27T02:53:03.589Z,80.99
2018-06-27T02:55:33.008Z,81.28
2018-06-27T02:58:02.436Z,81.55
2018-06-27T03:00:31.700Z,81.59
2018-06-27T03:03:00.971Z,81.72
2018-06-27T03:05:30.336Z,81.57
2018-06-27T03:07:59.535Z,81.69
2018-06-27T03:10:28.894Z,82.13
2018-06-27T03:12:58.107Z,82.36
2018-06-27T03:15:28.325Z,82.46
2018-06-27T03:17:57.536Z,82.41
2018-06-27T03:20:26.803Z,82.28
2018-06-27T03:22:56.003Z,82.30
2018-06-27T03:25:25.839Z,82.36
2018-06-27T03:27:55.039Z,82.41
2018-06-27T03:30:24.480Z,82.32
2018-06-27T03:32:53.663Z,82.41
2018-06-27T03:35:22.859Z,82.41
2018-06-27T03:37:52.043Z,82.32
2018-06-27T03:40:21.843Z,82.79
2018-06-27T03:42:51.006Z,82.44
2018-06-27T03:45:20.511Z,82.47
2018-06-27T03:47:49.680Z,82.49
2018-06-27T03:50:18.976Z,82.16
2018-06-27T03:52:48.975Z,82.45
2018-06-27T03:55:18.518Z,82.26
2018-06-27T03:57:47.712Z,82.43
2018-06-27T04:00:17.115Z,82.17
2018-06-27T04:02:46.307Z,81.83
2018-06-27T04:05:15.515Z,82.42
2018-06-27T04:07:44.780Z,81.85
2018-06-27T04:10:14.065Z,81.95
2018-06-27T04:12:43.282Z,81.54
2018-06-27T04:15:12.467Z,81.54
2018-06-27T04:17:41.659Z,81.48
2018-06-27T04:20:10.918Z,81.40
2018-06-27T04:22:40.020Z,81.45
2018-06-27T04:25:09.219Z,81.36
2018-06-27T04:27:38.403Z,81.18
2018-06-27T04:30:07.635Z,81.21
2018-06-27T04:32:36.815Z,80.82
2018-06-27T04:35:06.040Z,80.51
2018-06-27T04:37:35.355Z,79.63
2018-06-27T04:40:04.599Z,79.85
2018-06-27T04:42:33.769Z,79.55
2018-06-27T04:45:02.973Z,79.71
2018-06-27T04:47:32.486Z,79.19
2018-06-27T04:50:01.661Z,79.09
2018-06-27T04:52:30.860Z,78.85
2018-06-27T04:55:00.159Z,78.36
2018-06-27T04:57:29.495Z,78.22
2018-06-27T04:59:58.675Z,78.29
2018-06-27T05:02:28.366Z,77.71
2018-06-27T05:04:57.911Z,77.87
2018-06-27T05:07:27.208Z,77.50
2018-06-27T05:09:56.306Z,77.23
2018-06-27T05:12:25.507Z,77.36
2018-06-27T05:14:55.035Z,76.93
2018-06-27T05:17:24.248Z,76.34
2018-06-27T05:19:53.490Z,75.52
2018-06-27T05:22:22.871Z,76.04
2018-06-27T05:24:52.063Z,75.63
2018-06-27T05:27:21.342Z,74.87
2018-06-27T05:29:50.452Z,75.09
2018-06-27T05:32:20.027Z,74.90
2018-06-27T05:34:49.323Z,75.07
2018-06-27T05:37:18.947Z,74.78
2018-06-27T05:39:48.115Z,74.67
2018-06-27T05:42:17.565Z,73.86
2018-06-27T05:44:46.749Z,73.96
2018-06-27T05:47:16.059Z,73.43
2018-06-27T05:49:45.244Z,73.57
2018-06-27T05:52:14.555Z,72.78
2018-06-27T05:54:44.006Z,72.85
2018-06-27T05:57:13.518Z,72.56
2018-06-27T05:59:42.742Z,70.46
2018-06-27T06:02:11.950Z,67.60
2018-06-27T06:04:41.119Z,64.19
2018-06-27T06:07:10.539Z,62.79
2018-06-27T06:09:39.710Z,60.16
2018-06-27T06:12:08.920Z,59.56
2018-06-27T06:14:38.099Z,58.26
2018-06-27T06:17:07.323Z,58.74
2018-06-27T06:19:36.597Z,57.50
2018-06-27T06:22:05.946Z,55.67
2018-06-27T06:24:44.519Z,54.21
2018-06-27T06:27:14.874Z,53.54
2018-06-27T06:29:45.170Z,52.57
2018-06-27T06:32:14.978Z,51.73
2018-06-27T06:34:44.308Z,52.57
2018-06-27T06:37:13.487Z,51.79
2018-06-27T06:39:42.671Z,51.18
2018-06-27T06:42:11.859Z,52.93
2018-06-27T06:44:41.023Z,49.58
2018-06-27T06:47:10.324Z,48.50
2018-06-27T06:49:39.807Z,47.89
2018-06-27T06:52:09.064Z,47.04
2018-06-27T06:54:38.178Z,45.70
2018-06-27T06:57:07.387Z,44.17
2018-06-27T06:59:36.539Z,43.41
2018-06-27T07:02:05.736Z,41.90
2018-06-27T07:04:34.896Z,41.70
2018-06-27T07:07:04.355Z,41.27
2018-06-27T07:09:33.519Z,42.14
2018-06-27T07:12:02.711Z,41.33
2018-06-27T07:14:31.870Z,41.62
2018-06-27T07:17:01.055Z,39.88
2018-06-27T07:19:30.571Z,39.00
2018-06-27T07:21:59.747Z,38.71
2018-06-27T07:24:28.907Z,38.68
2018-06-27T07:26:58.116Z,37.10
2018-06-27T07:29:27.285Z,38.29
2018-06-27T07:31:56.491Z,38.91
2018-06-27T07:34:25.655Z,36.42
2018-06-27T07:36:54.851Z,37.54
2018-06-27T07:39:24.034Z,37.44
2018-06-27T07:41:53.345Z,37.10
2018-06-27T07:44:22.882Z,36.28
2018-06-27T07:46:52.024Z,36.96
2018-06-27T07:49:21.221Z,34.76
2018-06-27T07:51:50.854Z,35.12
2018-06-27T07:54:20.052Z,36.54
2018-06-27T07:56:49.283Z,36.92
2018-06-27T07:59:18.480Z,35.92
2018-06-27T08:01:47.768Z,34.88
2018-06-27T08:04:16.940Z,33.41
2018-06-27T08:06:47.512Z,32.95
2018-06-27T08:09:16.845Z,32.99
2018-06-27T08:11:46.017Z,33.29
2018-06-27T08:14:15.249Z,32.60
2018-06-27T08:16:44.824Z,32.04
2018-06-27T08:19:14.112Z,31.58
2018-06-27T08:21:43.442Z,30.23
2018-06-27T08:24:12.865Z,32.97
2018-06-27T08:26:42.039Z,32.45
2018-06-27T08:29:11.540Z,31.40
2018-06-27T08:31:40.796Z,31.14
2018-06-27T08:34:09.934Z,32.26
2018-06-27T08:36:39.330Z,30.92
2018-06-27T08:39:09.563Z,29.87
2018-06-27T08:41:39.476Z,30.92
2018-06-27T08:44:08.808Z,28.85
2018-06-27T08:46:37.984Z,30.72
2018-06-27T08:49:07.290Z,28.65
2018-06-27T08:51:36.944Z,30.25
2018-06-27T08:54:06.415Z,30.10
2018-06-27T08:56:35.888Z,28.89
2018-06-27T08:59:05.127Z,31.09
2018-06-27T09:01:34.312Z,30.71
2018-06-27T09:04:04.024Z,31.04
2018-06-27T09:06:33.775Z,30.55
2018-06-27T09:09:03.007Z,30.66
2018-06-27T09:11:32.187Z,28.91
2018-06-27T09:14:01.792Z,28.72
2018-06-27T09:16:30.979Z,28.92
2018-06-27T09:19:00.171Z,30.05
2018-06-27T09:21:29.491Z,27.93
2018-06-27T09:23:58.698Z,28.49
2018-06-27T09:26:28.280Z,29.71
2018-06-27T09:28:57.463Z,28.72
2018-06-27T09:31:26.651Z,27.31
2018-06-27T09:33:56.311Z,26.78
2018-06-27T09:36:25.491Z,26.17
2018-06-27T09:38:55.459Z,28.34
2018-06-27T09:41:24.652Z,26.67
2018-06-27T09:43:53.963Z,26.26
2018-06-27T09:46:23.143Z,25.11
2018-06-27T09:48:52.348Z,26.45
2018-06-27T09:51:21.535Z,25.60
2018-06-27T09:53:51.032Z,25.51
2018-06-27T09:56:20.203Z,24.75
2018-06-27T09:58:49.397Z,25.02
2018-06-27T10:01:18.555Z,25.03
2018-06-27T10:03:47.748Z,23.78
2018-06-27T10:06:16.933Z,22.29
2018-06-27T10:08:46.131Z,24.35
2018-06-27T10:11:15.472Z,23.31
2018-06-27T10:13:44.664Z,21.67
2018-06-27T10:16:14.016Z,22.82
2018-06-27T10:18:43.446Z,23.62
2018-06-27T10:21:12.758Z,23.20
2018-06-27T10:23:41.925Z,23.45
2018-06-27T10:26:12.124Z,23.05
2018-06-27T10:28:41.284Z,20.94
2018-06-27T10:31:10.496Z,22.02
2018-06-27T10:33:39.655Z,20.51
2018-06-27T10:36:08.851Z,21.65
2018-06-27T10:38:38.021Z,22.77
2018-06-27T10:41:08.043Z,21.32
2018-06-27T10:43:37.207Z,20.49
2018-06-27T10:46:06.689Z,21.40
2018-06-27T10:48:35.839Z,21.43
2018-06-27T10:51:05.068Z,22.23
2018-06-27T10:53:34.211Z,21.37
2018-06-27T10:56:03.519Z,21.08
2018-06-27T10:58:32.703Z,21.08
2018-06-27T11:01:02.063Z,20.51
2018-06-27T11:03:31.187Z,19.06
2018-06-27T11:06:00.399Z,20.12
2018-06-27T11:08:29.779Z,20.16
2018-06-27T11:10:58.967Z,22.01
2018-06-27T11:13:28.147Z,25.54
2018-06-27T11:15:57.338Z,24.91
2018-06-27T11:18:26.492Z,23.90
2018-06-27T11:20:55.663Z,24.07
2018-06-27T11:23:24.881Z,24.47
2018-06-27T11:25:54.036Z,25.44
2018-06-27T11:28:23.682Z,25.73
2018-06-27T11:30:52.849Z,25.31
2018-06-27T11:33:22.045Z,26.26
2018-06-27T11:35:51.785Z,23.88
2018-06-27T11:38:20.998Z,22.33
2018-06-27T11:40:51.043Z,22.24
2018-06-27T11:43:20.364Z,21.03
2018-06-27T11:45:49.411Z,19.81
2018-06-27T11:48:18.603Z,16.83
2018-06-27T11:50:47.895Z,22.24
2018-06-27T11:53:17.121Z,21.70
2018-06-27T11:55:46.249Z,21.08
2018-06-27T11:58:15.465Z,20.17
2018-06-27T12:00:44.644Z,23.14
2018-06-27T12:03:13.999Z,24.72
2018-06-27T12:05:43.464Z,21.57
2018-06-27T12:08:12.659Z,20.99
2018-06-27T12:10:41.819Z,22.43
2018-06-27T12:13:11.036Z,20.92
2018-06-27T12:15:40.187Z,21.07
2018-06-27T12:18:09.555Z,23.31
2018-06-27T12:20:38.984Z,27.77
2018-06-27T12:23:08.163Z,25.84
2018-06-27T12:25:37.339Z,22.85
2018-06-27T12:28:06.899Z,23.81
2018-06-27T12:30:36.072Z,26.87
2018-06-27T12:33:05.251Z,31.11
2018-06-27T12:35:34.475Z,32.81
2018-06-27T12:38:03.791Z,33.70
2018-06-27T12:40:32.979Z,29.25
2018-06-27T12:43:02.915Z,26.16
2018-06-27T12:45:32.106Z,23.89
2018-06-27T12:48:01.556Z,24.71
2018-06-27T12:50:30.727Z,24.23
2018-06-27T12:52:59.932Z,26.41
2018-06-27T12:55:29.116Z,28.78
2018-06-27T12:57:58.324Z,30.33
2018-06-27T13:00:28.475Z,25.45
2018-06-27T13:02:57.567Z,23.52
2018-06-27T13:05:27.033Z,22.11
2018-06-27T13:07:57.362Z,20.16
2018-06-27T13:10:26.572Z,21.12
2018-06-27T13:12:55.878Z,22.44
2018-06-27T13:15:25.627Z,20.69
2018-06-27T13:17:55.335Z,20.08
2018-06-27T13:20:24.533Z,20.00
2018-06-27T13:22:54.007Z,20.42
2018-06-27T13:25:23.209Z,21.08
2018-06-27T13:27:52.367Z,24.75
2018-06-27T13:30:21.599Z,27.27
2018-06-27T13:32:50.760Z,28.70
2018-06-27T13:35:19.964Z,29.07
2018-06-27T13:37:49.135Z,29.77
2018-06-27T13:40:18.975Z,30.96
2018-06-27T13:42:48.168Z,27.21
2018-06-27T13:45:17.600Z,22.55
2018-06-27T13:47:47.144Z,20.78
2018-06-27T13:50:16.376Z,23.48
2018-06-27T13:52:45.556Z,24.42
2018-06-27T13:55:14.747Z,27.37
2018-06-27T13:57:43.912Z,28.63
2018-06-27T14:00:13.127Z,28.91
2018-06-27T14:02:42.264Z,25.85
2018-06-27T14:05:11.475Z,22.55
2018-06-27T14:07:40.695Z,21.11
2018-06-27T14:10:09.914Z,20.71
2018-06-27T14:12:39.219Z,20.74
2018-06-27T14:15:08.439Z,21.23
2018-06-27T14:17:37.685Z,21.77
2018-06-27T14:20:06.900Z,22.02
2018-06-27T14:22:36.143Z,23.92
2018-06-27T14:25:05.403Z,22.61
2018-06-27T14:27:34.621Z,21.75
2018-06-27T14:30:04.083Z,19.62
2018-06-27T14:32:33.515Z,21.25
2018-06-27T14:35:02.740Z,20.99
2018-06-27T14:37:31.959Z,20.60
2018-06-27T14:40:01.182Z,21.37
2018-06-27T14:42:30.512Z,21.07
2018-06-27T14:44:59.724Z,19.73
2018-06-27T14:47:28.959Z,20.64
2018-06-27T14:49:58.168Z,20.28
2018-06-27T14:52:27.496Z,22.65
2018-06-27T14:54:56.711Z,22.52
2018-06-27T14:57:25.926Z,23.85
2018-06-27T14:59:55.188Z,25.88
2018-06-27T15:02:24.548Z,24.33
2018-06-27T15:04:53.765Z,24.58
2018-06-27T15:07:23.027Z,24.27
2018-06-27T15:09:52.264Z,24.57
2018-06-27T15:12:21.543Z,24.08
2018-06-27T15:14:51.008Z,25.84
2018-06-27T15:17:20.227Z,27.46
2018-06-27T15:19:50.032Z,27.58
2018-06-27T15:22:19.271Z,26.74
2018-06-27T15:24:48.511Z,27.93
2018-06-27T15:27:17.732Z,28.29
2018-06-27T15:29:46.969Z,29.31
2018-06-27T15:32:16.168Z,28.90
2018-06-27T15:34:45.828Z,29.63
2018-06-27T15:37:15.032Z,29.26
2018-06-27T15:39:44.251Z,29.05
2018-06-27T15:42:13.455Z,29.42
2018-06-27T15:44:43.128Z,31.32
2018-06-27T15:47:12.392Z,29.60
2018-06-27T15:49:41.671Z,29.50
2018-06-27T15:52:10.931Z,29.40
2018-06-27T15:54:40.139Z,30.70
2018-06-27T15:57:09.660Z,30.15
2018-06-27T15:59:43.079Z,31.26
2018-06-27T16:02:12.263Z,33.23
2018-06-27T16:04:41.783Z,30.59
2018-06-27T16:07:10.977Z,31.53
2018-06-27T16:09:40.608Z,29.74
2018-06-27T16:12:09.807Z,30.62
2018-06-27T16:14:39.034Z,31.38
2018-06-27T16:17:08.398Z,32.02
2018-06-27T16:19:37.532Z,31.65
2018-06-27T16:22:06.815Z,30.91
2018-06-27T16:24:36.380Z,30.21
2018-06-27T16:27:05.626Z,31.36
2018-06-27T16:29:34.909Z,31.06
2018-06-27T16:32:04.278Z,32.06
2018-06-27T16:34:33.463Z,31.55
2018-06-27T16:37:02.719Z,32.02
2018-06-27T16:39:32.660Z,31.81
2018-06-27T16:42:01.895Z,32.69
2018-06-27T16:44:31.303Z,32.08
2018-06-27T16:47:00.611Z,33.23
2018-06-27T16:49:29.836Z,33.48
2018-06-27T16:51:59.128Z,33.16
2018-06-27T16:54:28.360Z,33.50
2018-06-27T16:56:57.719Z,33.49
2018-06-27T16:59:26.925Z,33.83
2018-06-27T17:01:56.307Z,33.62
2018-06-27T17:04:25.512Z,33.57
2018-06-27T17:06:54.806Z,32.96
2018-06-27T17:09:24.196Z,34.32
2018-06-27T17:11:54.323Z,33.76
2018-06-27T17:14:23.523Z,33.15
2018-06-27T17:16:52.896Z,34.99
2018-06-27T17:19:22.108Z,34.82
2018-06-27T17:21:51.327Z,35.00
2018-06-27T17:24:20.525Z,33.72
2018-06-27T17:26:49.856Z,33.25
2018-06-27T17:29:19.036Z,34.19
2018-06-27T17:31:48.280Z,34.07
2018-06-27T17:34:17.479Z,35.18
2018-06-27T17:36:47.223Z,35.13
2018-06-27T17:39:16.463Z,35.07
2018-06-27T17:41:46.535Z,34.43
2018-06-27T17:44:15.735Z,34.87
2018-06-27T17:46:44.980Z,35.60
2018-06-27T17:49:14.321Z,34.73
2018-06-27T17:51:43.667Z,34.33
2018-06-27T17:54:12.903Z,34.38
2018-06-27T17:56:42.135Z,34.99
2018-06-27T17:59:11.417Z,33.77
2018-06-27T18:01:41.238Z,35.45
2018-06-27T18:04:10.472Z,35.29
2018-06-27T18:06:39.892Z,35.46
2018-06-27T18:09:09.795Z,35.46
2018-06-27T18:11:39.640Z,34.84
2018-06-27T18:14:09.299Z,36.10
2018-06-27T18:16:39.395Z,35.37
2018-06-27T18:19:08.751Z,34.98
2018-06-27T18:21:39.588Z,34.91
2018-06-27T18:24:08.860Z,36.67
2018-06-27T18:26:38.091Z,36.07
2018-06-27T18:29:07.445Z,35.86
2018-06-27T18:31:36.803Z,36.12
2018-06-27T18:34:06.026Z,37.26
2018-06-27T18:36:35.802Z,36.18
2018-06-27T18:39:07.802Z,37.07
2018-06-27T18:41:37.007Z,37.80
2018-06-27T18:44:06.233Z,38.28
2018-06-27T18:46:35.592Z,37.72
2018-06-27T18:49:04.835Z,37.32
2018-06-27T18:51:34.039Z,38.81
2018-06-27T18:54:04.919Z,38.69
2018-06-27T18:56:34.187Z,39.41
2018-06-27T18:59:03.491Z,40.03
2018-06-27T19:01:32.720Z,40.80
2018-06-27T19:04:02.083Z,41.50
2018-06-27T19:06:31.327Z,41.48
2018-06-27T19:09:00.555Z,39.78
2018-06-27T19:11:29.800Z,42.07
2018-06-27T19:13:59.111Z,43.13
2018-06-27T19:16:29.775Z,42.36
2018-06-27T19:18:59.016Z,40.97
2018-06-27T19:21:28.431Z,43.29
2018-06-27T19:23:57.651Z,43.45
2018-06-27T19:26:26.891Z,44.75
2018-06-27T19:28:56.104Z,45.38
2018-06-27T19:34:35.594Z,43.80
2018-06-27T19:37:05.695Z,44.14
2018-06-27T19:39:37.460Z,44.82
2018-06-27T19:42:04.356Z,45.29
2018-06-27T19:44:33.907Z,44.82
2018-06-27T19:47:03.194Z,44.67
2018-06-27T19:49:32.671Z,44.82
2018-06-27T19:52:01.924Z,44.78
2018-06-27T19:54:31.107Z,45.47
2018-06-27T19:57:00.716Z,46.48
2018-06-27T19:59:29.887Z,45.76
2018-06-27T20:01:59.103Z,47.79
2018-06-27T20:04:28.879Z,48.71
2018-06-27T20:06:58.085Z,49.65
2018-06-27T20:09:27.255Z,49.46
2018-06-27T20:11:56.447Z,50.28
2018-06-27T20:14:26.599Z,51.34
2018-06-27T20:16:55.971Z,51.92
2018-06-27T20:19:25.366Z,53.32
2018-06-27T20:21:54.976Z,53.52
2018-06-27T20:24:24.256Z,54.99
2018-06-27T20:26:53.448Z,54.95
2018-06-27T20:29:22.627Z,55.42
2018-06-27T20:31:51.943Z,55.85
2018-06-27T20:34:21.391Z,56.12
2018-06-27T20:36:51.839Z,57.11
2018-06-27T20:39:21.036Z,57.42
2018-06-27T20:41:50.424Z,56.94
2018-06-27T20:44:19.951Z,57.70
2018-06-27T20:46:49.868Z,58.55
2018-06-27T20:49:19.447Z,58.32
2018-06-27T20:51:48.968Z,58.72
2018-06-27T20:54:18.387Z,58.91
2018-06-27T20:56:47.615Z,57.21
2018-06-27T20:59:16.936Z,56.30
2018-06-27T21:01:46.125Z,54.51
2018-06-27T21:04:15.435Z,55.08
2018-06-27T21:06:44.615Z,52.71
2018-06-27T21:09:13.836Z,54.55
2018-06-27T21:11:43.439Z,53.43
2018-06-27T21:14:12.687Z,53.83
2018-06-27T21:16:42.016Z,53.85
2018-06-27T21:19:11.215Z,53.76
2018-06-27T21:21:40.412Z,54.75
2018-06-27T21:24:09.603Z,55.50
2018-06-27T21:26:39.180Z,55.40
2018-06-27T21:29:08.391Z,55.83
2018-06-27T21:31:37.907Z,55.01
2018-06-27T21:34:07.119Z,54.99
2018-06-27T21:36:36.307Z,55.08
2018-06-27T21:39:08.093Z,55.28
2018-06-27T21:41:37.315Z,55.09
2018-06-27T21:44:06.595Z,55.89
2018-06-27T21:46:35.847Z,54.45
2018-06-27T21:49:05.127Z,54.47
2018-06-27T21:51:34.299Z,54.75
2018-06-27T21:54:03.512Z,55.19
2018-06-27T21:56:32.915Z,55.94
2018-06-27T21:59:02.116Z,54.43
2018-06-27T22:01:31.608Z,56.02
2018-06-27T22:04:01.401Z,56.55
2018-06-27T22:06:30.582Z,55.30
2018-06-27T22:08:59.783Z,56.43
2018-06-27T22:11:28.976Z,56.32
2018-06-27T22:13:58.143Z,56.11
2018-06-27T22:16:27.340Z,57.21
2018-06-27T22:18:56.591Z,57.08
2018-06-27T22:21:26.043Z,58.16
2018-06-27T22:23:55.548Z,58.23
2018-06-27T22:26:24.998Z,59.17
2018-06-27T22:28:54.427Z,59.04
2018-06-27T22:31:23.664Z,59.80
2018-06-27T22:33:53.035Z,60.10
2018-06-27T22:36:22.256Z,60.50
2018-06-27T22:38:51.611Z,60.10
2018-06-27T22:41:21.240Z,61.15
2018-06-27T22:43:50.412Z,60.79
2018-06-27T22:46:19.608Z,60.38
2018-06-27T22:48:49.103Z,59.40
2018-06-27T22:51:18.596Z,61.04
2018-06-27T22:53:47.883Z,60.34
2018-06-27T22:56:17.519Z,60.33
2018-06-27T22:58:46.728Z,61.20
2018-06-27T23:01:15.931Z,60.15
2018-06-27T23:03:45.163Z,61.94
2018-06-27T23:06:14.644Z,61.80
2018-06-27T23:08:43.835Z,61.30
2018-06-27T23:11:13.043Z,61.66
2018-06-27T23:13:42.659Z,61.93
2018-06-27T23:16:11.865Z,62.53
2018-06-27T23:18:41.123Z,62.04
2018-06-27T23:21:10.315Z,60.02
2018-06-27T23:23:39.640Z,60.85
2018-06-27T23:26:08.954Z,60.63
2018-06-27T23:28:38.136Z,58.29
2018-06-27T23:31:07.347Z,57.70
2018-06-27T23:33:36.556Z,58.45
2018-06-27T23:36:06.172Z,60.01
2018-06-27T23:38:35.636Z,60.28
2018-06-27T23:41:05.173Z,60.61
2018-06-27T23:43:34.351Z,60.67
2018-06-27T23:46:03.543Z,61.10
2018-06-27T23:48:32.748Z,61.20
2018-06-27T23:51:01.919Z,61.42
2018-06-27T23:53:31.119Z,59.35
2018-06-27T23:56:00.324Z,59.53
2018-06-27T23:58:29.536Z,59.22
